createdAt,value
2023-05-14T00:01:11.367Z,100439.06
2023-05-14T00:03:41.270Z,100433.00
2023-05-14T00:06:10.736Z,100426.00
2023-05-14T00:08:39.354Z,100424.41
2023-05-14T00:11:09.438Z,100419.19
2023-05-14T00:13:38.072Z,100429.03
2023-05-14T00:16:07.507Z,100425.63
2023-05-14T00:18:35.879Z,100422.13
2023-05-14T00:21:05.148Z,100424.19
2023-05-14T00:23:33.791Z,100428.00
2023-05-14T00:26:02.190Z,100415.75
2023-05-14T00:28:32.100Z,100418.78
2023-05-14T00:31:00.478Z,100413.59
2023-05-14T00:33:29.244Z,100413.91
2023-05-14T00:35:57.433Z,100413.94
2023-05-14T00:38:28.713Z,100409.69
2023-05-14T00:40:57.316Z,100409.88
2023-05-14T00:43:26.002Z,100407.31
2023-05-14T00:45:56.713Z,100409.97
2023-05-14T00:48:26.547Z,100403.03
2023-05-14T00:50:54.816Z,100399.47
2023-05-14T00:53:24.259Z,100395.03
2023-05-14T00:55:53.153Z,100383.69
2023-05-14T00:58:22.101Z,100396.91
2023-05-14T01:00:50.647Z,100393.59
2023-05-14T01:03:22.704Z,100392.00
2023-05-14T01:06:05.815Z,100386.88
2023-05-14T01:08:41.632Z,100390.72
2023-05-14T01:11:21.484Z,100391.00
2023-05-14T01:14:01.838Z,100389.38
2023-05-14T01:16:35.231Z,100388.50
2023-05-14T01:19:09.181Z,100386.84
2023-05-14T01:21:40.986Z,100394.22
2023-05-14T01:24:09.980Z,100388.97
2023-05-14T01:26:38.553Z,100388.22
2023-05-14T01:29:15.018Z,100379.38
2023-05-14T01:31:45.170Z,100378.66
2023-05-14T01:34:15.116Z,100380.59
2023-05-14T01:36:45.396Z,100398.50
2023-05-14T01:39:16.646Z,100401.19
2023-05-14T01:41:46.420Z,100384.44
2023-05-14T01:44:17.479Z,100385.13
2023-05-14T01:46:46.089Z,100385.13
2023-05-14T01:49:18.518Z,100387.03
2023-05-14T01:51:50.329Z,100383.44
2023-05-14T01:54:19.395Z,100382.72
2023-05-14T01:56:47.580Z,100379.97
2023-05-14T01:59:16.144Z,100388.09
2023-05-14T02:01:44.469Z,100381.97
2023-05-14T02:04:14.756Z,100382.94
2023-05-14T02:06:43.190Z,100378.56
2023-05-14T02:09:12.673Z,100376.00
2023-05-14T02:11:40.825Z,100375.19
2023-05-14T02:14:09.283Z,100384.09
2023-05-14T02:16:40.733Z,100378.91
2023-05-14T02:19:09.554Z,100378.16
2023-05-14T02:21:37.839Z,100374.75
2023-05-14T02:24:06.290Z,100372.22
2023-05-14T02:26:36.007Z,100372.47
2023-05-14T02:29:06.438Z,100378.00
2023-05-14T02:31:34.849Z,100372.91
2023-05-14T02:34:07.068Z,100368.69
2023-05-14T02:36:35.366Z,100371.41
2023-05-14T02:39:06.056Z,100368.00
2023-05-14T02:41:35.683Z,100375.06
2023-05-14T02:44:06.644Z,100365.47
2023-05-14T02:46:35.614Z,100369.06
2023-05-14T02:49:22.541Z,100360.22
2023-05-14T02:51:50.709Z,100360.22
2023-05-14T02:54:18.984Z,100363.03
2023-05-14T02:56:48.708Z,100365.72
2023-05-14T02:59:17.281Z,100366.59
2023-05-14T03:01:46.038Z,100371.09
2023-05-14T03:04:14.659Z,100367.47
2023-05-14T03:06:42.879Z,100363.94
2023-05-14T03:09:11.229Z,100357.78
2023-05-14T03:11:39.514Z,100364.84
2023-05-14T03:14:09.151Z,100355.97
2023-05-14T03:16:37.591Z,100359.56
2023-05-14T03:19:05.766Z,100355.97
2023-05-14T03:21:34.611Z,100350.63
2023-05-14T03:24:03.277Z,100350.72
2023-05-14T03:26:31.479Z,100356.91
2023-05-14T03:28:59.595Z,100353.34
2023-05-14T03:31:29.100Z,100355.97
2023-05-14T03:34:00.116Z,100351.69
2023-05-14T03:36:30.360Z,100357.06
2023-05-14T03:38:58.541Z,100360.72
2023-05-14T03:41:29.083Z,100355.41
2023-05-14T03:45:13.620Z,100353.72
2023-05-14T03:47:41.966Z,100352.91
2023-05-14T03:50:10.544Z,100339.84
2023-05-14T03:52:38.639Z,100356.44
2023-05-14T03:55:08.028Z,100357.31
2023-05-14T03:57:41.489Z,100361.72
2023-05-14T04:00:11.115Z,100359.88
2023-05-14T04:02:46.593Z,100364.19
2023-05-14T04:05:14.834Z,100364.16
2023-05-14T04:07:47.059Z,100353.53
2023-05-14T04:10:15.859Z,100353.50
2023-05-14T04:12:44.006Z,100364.19
2023-05-14T04:15:12.817Z,100359.75
2023-05-14T04:17:41.327Z,100362.44
2023-05-14T04:20:13.114Z,100372.19
2023-05-14T04:22:41.267Z,100366.94
2023-05-14T04:25:09.988Z,100363.50
2023-05-14T04:27:41.406Z,100360.81
2023-05-14T04:30:10.968Z,100362.59
2023-05-14T04:32:39.323Z,100363.47
2023-05-14T04:35:09.131Z,100368.63
2023-05-14T04:37:39.047Z,100364.03
2023-05-14T04:40:12.794Z,100362.97
2023-05-14T04:42:40.912Z,100361.81
2023-05-14T04:45:13.691Z,100359.88
2023-05-14T04:47:42.365Z,100371.16
2023-05-14T04:50:13.054Z,100359.16
2023-05-14T04:52:42.874Z,100362.44
2023-05-14T04:55:11.635Z,100363.75
2023-05-14T04:57:39.694Z,100360.88
2023-05-14T05:00:10.055Z,100368.53
2023-05-14T05:02:38.276Z,100368.31
2023-05-14T05:05:07.050Z,100373.78
2023-05-14T05:07:40.124Z,100376.16
2023-05-14T05:10:10.625Z,100370.44
2023-05-14T05:12:39.018Z,100373.97
2023-05-14T05:15:09.547Z,100368.16
2023-05-14T05:17:38.087Z,100369.06
2023-05-14T05:20:10.261Z,100373.41
2023-05-14T05:22:38.310Z,100375.13
2023-05-14T05:25:08.162Z,100384.72
2023-05-14T05:27:37.702Z,100384.63
2023-05-14T05:30:07.361Z,100387.50
2023-05-14T05:32:36.354Z,100383.94
2023-05-14T05:35:04.996Z,100381.22
2023-05-14T05:37:36.016Z,100384.63
2023-05-14T05:40:07.882Z,100386.81
2023-05-14T05:42:37.326Z,100383.72
2023-05-14T05:45:06.619Z,100383.69
2023-05-14T05:47:34.987Z,100380.03
2023-05-14T05:50:06.306Z,100382.59
2023-05-14T05:52:39.896Z,100379.34
2023-05-14T05:55:08.638Z,100383.31
2023-05-14T05:57:38.501Z,100389.94
2023-05-14T06:00:13.403Z,100387.91
2023-05-14T06:02:42.431Z,100380.59
2023-05-14T06:05:11.842Z,100382.19
2023-05-14T06:07:40.414Z,100382.03
2023-05-14T06:10:13.808Z,100385.38
2023-05-14T06:12:43.403Z,100388.94
2023-05-14T06:15:12.188Z,100388.72
2023-05-14T06:17:40.714Z,100390.59
2023-05-14T06:20:12.163Z,100359.31
2023-05-14T06:22:40.308Z,100384.75
2023-05-14T06:25:09.481Z,100387.13
2023-05-14T06:27:37.801Z,100386.03
2023-05-14T06:30:08.559Z,100384.47
2023-05-14T06:32:36.743Z,100387.25
2023-05-14T06:35:08.664Z,100386.00
2023-05-14T06:37:36.895Z,100381.44
2023-05-14T06:40:06.092Z,100379.97
2023-05-14T06:42:34.469Z,100381.78
2023-05-14T06:45:03.352Z,100391.75
2023-05-14T06:47:34.166Z,100375.03
2023-05-14T06:50:02.287Z,100379.44
2023-05-14T06:52:30.836Z,100375.06
2023-05-14T06:54:58.941Z,100366.78
2023-05-14T06:57:27.098Z,100375.03
2023-05-14T06:59:55.518Z,100359.50
2023-05-14T07:02:23.677Z,100364.91
2023-05-14T07:04:53.280Z,100356.81
2023-05-14T07:07:22.036Z,100362.41
2023-05-14T07:09:54.954Z,100361.97
2023-05-14T07:12:26.004Z,100365.34
2023-05-14T07:14:54.256Z,100359.75
2023-05-14T07:17:22.737Z,100362.72
2023-05-14T07:19:51.361Z,100361.50
2023-05-14T07:22:20.915Z,100369.63
2023-05-14T07:24:49.553Z,100363.97
2023-05-14T07:27:20.366Z,100358.09
2023-05-14T07:29:48.720Z,100365.50
2023-05-14T07:32:16.912Z,100355.00
2023-05-14T07:34:45.224Z,100365.09
2023-05-14T07:37:13.358Z,100356.78
2023-05-14T07:39:45.401Z,100366.13
2023-05-14T07:42:19.518Z,100352.06
2023-05-14T07:44:53.209Z,100351.34
2023-05-14T07:47:21.385Z,100349.03
2023-05-14T07:49:49.665Z,100344.53
2023-05-14T07:52:17.779Z,100340.44
2023-05-14T07:54:48.377Z,100330.00
2023-05-14T07:57:18.590Z,100330.06
2023-05-14T07:59:46.776Z,100327.19
2023-05-14T08:02:16.287Z,100327.22
2023-05-14T08:04:47.000Z,100323.63
2023-05-14T08:07:15.362Z,100322.94
2023-05-14T08:09:43.663Z,100327.63
2023-05-14T08:12:13.271Z,100327.09
2023-05-14T08:14:41.546Z,100331.44
2023-05-14T08:17:10.089Z,100333.09
2023-05-14T08:19:38.609Z,100326.94
2023-05-14T08:22:07.420Z,100323.13
2023-05-14T08:24:37.876Z,100327.75
2023-05-14T08:27:06.512Z,100324.75
2023-05-14T08:29:38.407Z,100321.84
2023-05-14T08:32:19.272Z,100326.19
2023-05-14T08:34:50.924Z,100314.31
2023-05-14T08:37:19.304Z,100316.19
2023-05-14T08:39:52.374Z,100305.25
2023-05-14T08:42:22.791Z,100323.44
2023-05-14T08:46:24.602Z,100313.44
2023-05-14T08:48:57.764Z,100310.66
2023-05-14T08:51:29.271Z,100310.06
2023-05-14T08:54:03.505Z,100301.94
2023-05-14T08:56:34.450Z,100302.16
2023-05-14T08:59:02.726Z,100300.66
2023-05-14T09:01:32.563Z,100304.22
2023-05-14T09:04:07.222Z,100300.44
2023-05-14T09:06:37.627Z,100290.25
2023-05-14T09:09:08.459Z,100301.81
2023-05-14T09:11:42.242Z,100299.19
2023-05-14T09:14:11.334Z,100293.78
2023-05-14T09:16:42.626Z,100297.66
2023-05-14T09:19:11.366Z,100299.78
2023-05-14T09:21:40.207Z,100291.03
2023-05-14T09:24:10.992Z,100289.53
2023-05-14T09:26:39.438Z,100285.63
2023-05-14T09:29:07.577Z,100284.06
2023-05-14T09:31:37.431Z,100292.53
2023-05-14T09:34:07.321Z,100285.59
2023-05-14T09:36:36.170Z,100286.59
2023-05-14T09:39:05.376Z,100289.84
2023-05-14T09:41:36.305Z,100286.94
2023-05-14T09:44:06.105Z,100291.38
2023-05-14T09:46:35.290Z,100286.41
2023-05-14T09:49:03.853Z,100300.91
2023-05-14T09:51:33.751Z,100289.75
2023-05-14T09:54:05.924Z,100280.66
2023-05-14T09:56:34.272Z,100292.75
2023-05-14T09:59:02.979Z,100284.84
2023-05-14T10:01:33.092Z,100281.53
2023-05-14T10:04:03.825Z,100281.84
2023-05-14T10:06:37.588Z,100278.59
2023-05-14T10:09:12.091Z,100283.03
2023-05-14T10:11:44.330Z,100291.38
2023-05-14T10:14:18.263Z,100289.22
2023-05-14T10:16:50.263Z,100283.91
2023-05-14T10:19:21.529Z,100294.28
2023-05-14T10:21:56.946Z,100280.03
2023-05-14T10:24:26.822Z,100283.28
2023-05-14T10:26:58.738Z,100281.19
2023-05-14T10:29:34.476Z,100281.75
2023-05-14T10:32:06.483Z,100273.91
2023-05-14T10:34:38.872Z,100272.66
2023-05-14T10:37:10.680Z,100275.75
2023-05-14T10:39:47.237Z,100275.00
2023-05-14T10:42:18.976Z,100277.00
2023-05-14T10:44:53.480Z,100272.78
2023-05-14T10:47:22.612Z,100282.09
2023-05-14T10:49:51.994Z,100280.69
2023-05-14T10:52:25.073Z,100280.69
2023-05-14T10:54:54.916Z,100272.16
2023-05-14T10:57:26.331Z,100273.66
2023-05-14T10:59:56.322Z,100270.19
2023-05-14T11:02:28.355Z,100272.47
2023-05-14T11:04:59.577Z,100278.00
2023-05-14T11:07:34.027Z,100271.38
2023-05-14T11:10:07.330Z,100277.66
2023-05-14T11:12:36.693Z,100268.56
2023-05-14T11:15:06.778Z,100267.84
2023-05-14T11:17:36.997Z,100263.81
2023-05-14T11:20:06.615Z,100266.53
2023-05-14T11:22:37.301Z,100259.69
2023-05-14T11:25:07.374Z,100257.38
2023-05-14T11:27:39.714Z,100257.63
2023-05-14T11:30:14.595Z,100249.41
2023-05-14T11:32:43.479Z,100251.00
2023-05-14T11:35:11.797Z,100249.00
2023-05-14T11:37:41.602Z,100247.25
2023-05-14T11:40:16.789Z,100245.78
2023-05-14T11:42:45.654Z,100244.09
2023-05-14T11:45:26.504Z,100247.53
2023-05-14T11:47:55.227Z,100248.50
2023-05-14T11:50:23.975Z,100245.63
2023-05-14T11:52:57.738Z,100236.31
2023-05-14T11:55:26.267Z,100239.03
2023-05-14T11:57:54.951Z,100229.47
2023-05-14T12:00:24.643Z,100230.16
2023-05-14T12:02:53.564Z,100229.25
2023-05-14T12:05:22.167Z,100226.44
2023-05-14T12:07:50.510Z,100226.22
2023-05-14T12:10:20.763Z,100219.25
2023-05-14T12:12:50.413Z,100219.00
2023-05-14T12:15:19.125Z,100221.63
2023-05-14T12:17:51.971Z,100219.41
2023-05-14T12:20:20.208Z,100220.16
2023-05-14T12:22:48.507Z,100212.47
2023-05-14T12:25:16.793Z,100204.84
2023-05-14T12:27:46.960Z,100215.72
2023-05-14T12:32:51.690Z,100198.31
2023-05-14T12:35:23.456Z,100195.34
2023-05-14T12:37:52.138Z,100185.94
2023-05-14T12:40:20.774Z,100184.16
2023-05-14T12:42:50.168Z,100187.25
2023-05-14T12:45:18.785Z,100176.38
2023-05-14T12:47:47.113Z,100174.84
2023-05-14T12:50:15.334Z,100178.25
2023-05-14T12:52:46.674Z,100170.03
2023-05-14T12:55:17.303Z,100166.13
2023-05-14T12:57:48.004Z,100160.63
2023-05-14T13:00:18.144Z,100159.34
2023-05-14T13:02:46.447Z,100165.13
2023-05-14T13:05:16.997Z,100162.31
2023-05-14T13:07:45.682Z,100159.13
2023-05-14T13:10:14.003Z,100159.25
2023-05-14T13:12:42.212Z,100153.59
2023-05-14T13:15:11.592Z,100152.44
2023-05-14T13:17:41.473Z,100148.25
2023-05-14T13:20:10.771Z,100145.84
2023-05-14T13:22:38.934Z,100146.94
2023-05-14T13:25:08.281Z,100137.78
2023-05-14T13:27:37.037Z,100141.38
2023-05-14T13:30:05.658Z,100135.84
2023-05-14T13:32:33.921Z,100136.91
2023-05-14T13:35:07.931Z,100135.81
2023-05-14T13:37:37.092Z,100121.50
2023-05-14T13:40:08.702Z,100109.31
2023-05-14T13:42:37.027Z,100119.28
2023-05-14T13:47:21.102Z,100107.84
2023-05-14T13:49:49.326Z,100104.38
2023-05-14T13:52:19.821Z,100095.00
2023-05-14T13:54:50.590Z,100095.97
2023-05-14T13:57:18.690Z,100093.22
2023-05-14T13:59:47.866Z,100089.94
2023-05-14T14:02:18.424Z,100082.63
2023-05-14T14:04:49.590Z,100089.81
2023-05-14T14:07:21.223Z,100080.31
2023-05-14T14:09:49.592Z,100071.81
2023-05-14T14:12:20.165Z,100084.75
2023-05-14T14:14:51.114Z,100075.63
2023-05-14T14:17:21.523Z,100073.97
2023-05-14T14:19:51.301Z,100062.72
2023-05-14T14:22:22.198Z,100064.56
2023-05-14T14:24:50.965Z,100068.25
2023-05-14T14:27:19.180Z,100065.03
2023-05-14T14:29:49.435Z,100058.75
2023-05-14T14:32:21.484Z,100056.94
2023-05-14T14:34:51.001Z,100055.47
2023-05-14T14:37:21.154Z,100052.03
2023-05-14T14:39:50.086Z,100047.44
2023-05-14T14:42:20.775Z,100041.78
2023-05-14T14:44:49.011Z,100042.56
2023-05-14T14:47:17.859Z,100041.03
2023-05-14T14:49:46.441Z,100033.81
2023-05-14T14:52:16.058Z,100038.13
2023-05-14T14:54:45.132Z,100031.75
2023-05-14T14:57:13.227Z,100035.72
2023-05-14T14:59:41.474Z,100017.78
2023-05-14T15:02:12.696Z,100030.22
2023-05-14T15:04:40.965Z,100036.47
2023-05-14T15:07:09.441Z,100030.22
2023-05-14T15:09:38.917Z,100028.13
2023-05-14T15:12:09.414Z,100021.97
2023-05-14T15:14:37.670Z,100025.91
2023-05-14T15:17:06.276Z,100032.56
2023-05-14T15:19:37.251Z,100027.91
2023-05-14T15:22:05.940Z,100024.09
2023-05-14T15:24:34.014Z,100021.00
2023-05-14T15:27:03.411Z,100023.72
2023-05-14T15:29:34.962Z,100025.41
2023-05-14T15:32:03.412Z,100022.75
2023-05-14T15:34:31.576Z,100018.03
2023-05-14T15:36:59.942Z,100011.53
2023-05-14T15:39:29.573Z,100008.44
2023-05-14T15:41:58.278Z,100011.91
2023-05-14T15:44:27.870Z,100017.81
2023-05-14T15:46:55.911Z,100023.34
2023-05-14T15:49:24.985Z,100019.16
2023-05-14T15:51:55.982Z,100017.66
2023-05-14T15:54:26.459Z,100011.53
2023-05-14T15:56:54.915Z,100006.00
2023-05-14T15:59:25.508Z,100010.31
2023-05-14T16:01:56.229Z,100013.59
2023-05-14T16:04:24.565Z,100005.13
2023-05-14T16:06:53.216Z,99999.81
2023-05-14T16:09:24.028Z,99990.09
2023-05-14T16:11:52.227Z,99997.34
2023-05-14T16:14:21.132Z,99990.34
2023-05-14T16:16:49.458Z,99986.53
2023-05-14T16:19:19.364Z,99990.34
2023-05-14T16:21:48.083Z,99998.59
2023-05-14T16:24:18.803Z,100004.50
2023-05-14T16:26:47.661Z,100010.78
2023-05-14T16:29:15.932Z,100005.94
2023-05-14T16:31:44.681Z,100007.31
2023-05-14T16:34:15.618Z,100007.75
2023-05-14T16:36:45.346Z,100003.78
2023-05-14T16:39:13.575Z,100003.69
2023-05-14T16:41:42.093Z,99992.00
2023-05-14T16:44:10.264Z,100002.69
2023-05-14T16:46:39.143Z,100009.94
2023-05-14T16:49:07.230Z,99974.88
2023-05-14T16:51:36.609Z,100006.41
2023-05-14T16:54:06.689Z,100000.94
2023-05-14T16:56:35.171Z,99997.00
2023-05-14T16:59:03.278Z,99996.97
2023-05-14T17:01:34.709Z,99990.69
2023-05-14T17:04:03.162Z,99989.47
2023-05-14T17:06:33.976Z,99990.78
2023-05-14T17:09:02.181Z,99997.31
2023-05-14T17:11:31.973Z,99991.25
2023-05-14T17:14:00.523Z,99993.09
2023-05-14T17:16:29.556Z,99988.38
2023-05-14T17:19:00.497Z,99986.41
2023-05-14T17:21:29.231Z,99985.75
2023-05-14T17:23:58.174Z,99983.16
2023-05-14T17:26:26.630Z,99988.91
2023-05-14T17:28:56.033Z,99991.63
2023-05-14T17:31:24.293Z,99994.44
2023-05-14T17:33:52.921Z,99986.34
2023-05-14T17:36:21.171Z,99990.47
2023-05-14T17:38:49.938Z,99994.16
2023-05-14T17:45:26.089Z,100001.09
2023-05-14T17:47:54.569Z,99962.34
2023-05-14T17:50:22.678Z,99993.53
2023-05-14T17:52:54.910Z,99995.84
2023-05-14T17:55:24.867Z,99999.28
2023-05-14T17:57:53.251Z,100008.56
2023-05-14T18:00:25.104Z,100006.22
2023-05-14T18:02:53.726Z,100018.63
2023-05-14T18:05:22.013Z,100016.16
2023-05-14T18:07:50.355Z,100023.22
2023-05-14T18:10:18.772Z,100022.13
2023-05-14T18:12:47.097Z,100028.00
2023-05-14T18:15:15.713Z,100021.94
2023-05-14T18:17:45.611Z,100021.84
2023-05-14T18:20:13.779Z,100024.09
2023-05-14T18:22:41.924Z,100030.22
2023-05-14T18:25:12.967Z,100024.56
2023-05-14T18:27:44.308Z,100029.63
2023-05-14T18:30:14.714Z,100035.69
2023-05-14T18:32:45.465Z,100034.34
2023-05-14T18:35:14.780Z,100033.81
2023-05-14T18:37:42.910Z,100040.47
2023-05-14T18:40:16.363Z,100048.97
2023-05-14T18:42:49.250Z,100045.31
2023-05-14T18:48:26.602Z,100049.00
2023-05-14T18:50:55.459Z,100049.13
2023-05-14T18:53:26.302Z,100049.31
2023-05-14T18:55:56.862Z,100055.66
2023-05-14T18:58:25.171Z,100054.78
2023-05-14T19:00:53.488Z,100053.84
2023-05-14T19:03:25.535Z,100057.50
2023-05-14T19:05:53.789Z,100055.78
2023-05-14T19:08:22.184Z,100064.16
2023-05-14T19:10:51.071Z,100058.88
2023-05-14T19:13:19.308Z,100064.25
2023-05-14T19:15:50.327Z,100068.09
2023-05-14T19:18:18.591Z,100071.88
2023-05-14T19:20:48.241Z,100079.19
2023-05-14T19:23:21.109Z,100082.28
2023-05-14T19:25:49.613Z,100081.78
2023-05-14T19:28:19.922Z,100083.13
2023-05-14T19:30:51.301Z,100082.94
2023-05-14T19:33:19.553Z,100083.50
2023-05-14T19:35:49.057Z,100079.75
2023-05-14T19:38:17.460Z,100082.25
2023-05-14T19:40:45.807Z,100087.41
2023-05-14T19:43:16.206Z,100087.03
2023-05-14T19:45:45.995Z,100091.06
2023-05-14T19:48:15.992Z,100087.97
2023-05-14T19:50:48.540Z,100081.31
2023-05-14T19:53:16.865Z,100091.72
2023-05-14T19:55:45.344Z,100096.59
2023-05-14T19:58:14.230Z,100082.09
2023-05-14T20:00:42.689Z,100098.34
2023-05-14T20:03:16.579Z,100089.94
2023-05-14T20:05:46.019Z,100090.97
2023-05-14T20:08:16.902Z,100088.03
2023-05-14T20:10:47.779Z,100086.75
2023-05-14T20:13:16.199Z,100082.69
2023-05-14T20:15:47.633Z,100087.53
2023-05-14T20:18:15.865Z,100076.53
2023-05-14T20:20:47.124Z,100078.50
2023-05-14T20:23:16.907Z,100078.78
2023-05-14T20:25:45.478Z,100085.19
2023-05-14T20:28:13.702Z,100075.97
2023-05-14T20:30:42.581Z,100081.56
2023-05-14T20:33:13.041Z,100072.91
2023-05-14T20:35:43.692Z,100073.19
2023-05-14T20:38:12.977Z,100072.41
2023-05-14T20:40:42.588Z,100071.69
2023-05-14T20:43:10.676Z,100074.38
2023-05-14T20:45:39.646Z,100063.91
2023-05-14T20:48:10.286Z,100068.28
2023-05-14T20:50:38.664Z,100064.91
2023-05-14T20:53:07.037Z,100062.75
2023-05-14T20:55:35.150Z,100060.19
2023-05-14T20:58:04.623Z,100053.84
2023-05-14T21:00:33.165Z,100051.09
2023-05-14T21:03:01.619Z,100054.66
2023-05-14T21:05:30.444Z,100056.97
2023-05-14T21:07:58.787Z,100054.13
2023-05-14T21:10:27.126Z,100049.78
2023-05-14T21:12:58.497Z,100045.56
2023-05-14T21:15:30.161Z,100044.84
2023-05-14T21:17:58.553Z,100047.69
2023-05-14T21:20:29.143Z,100049.78
2023-05-14T21:22:59.920Z,100041.78
2023-05-14T21:25:28.245Z,100037.28
2023-05-14T21:27:56.448Z,100037.38
2023-05-14T21:30:24.768Z,100034.78
2023-05-14T21:32:54.328Z,100035.03
2023-05-14T21:35:22.634Z,100038.88
2023-05-14T21:37:53.007Z,100036.63
2023-05-14T21:40:21.680Z,100037.09
2023-05-14T21:42:50.006Z,100035.03
2023-05-14T21:45:18.185Z,100031.03
2023-05-14T21:47:48.972Z,100020.00
2023-05-14T21:50:21.102Z,100024.97
2023-05-14T21:52:51.721Z,100028.69
2023-05-14T21:55:19.867Z,100029.06
2023-05-14T21:57:48.163Z,100023.84
2023-05-14T22:00:23.296Z,100021.47
2023-05-14T22:02:52.220Z,100017.00
2023-05-14T22:05:22.429Z,100019.81
2023-05-14T22:07:51.634Z,100020.22
2023-05-14T22:10:20.680Z,100028.69
2023-05-14T22:12:49.180Z,100023.28
2023-05-14T22:15:17.325Z,100020.28
2023-05-14T22:17:46.971Z,100020.56
2023-05-14T22:20:15.538Z,100024.03
2023-05-14T22:22:45.012Z,100016.28
2023-05-14T22:25:13.468Z,100017.53
2023-05-14T22:27:41.582Z,100017.78
2023-05-14T22:30:13.017Z,100017.31
2023-05-14T22:32:41.362Z,100008.78
2023-05-14T22:35:11.292Z,100002.66
2023-05-14T22:37:39.497Z,99999.44
2023-05-14T22:40:10.220Z,99991.41
2023-05-14T22:42:38.451Z,99997.06
2023-05-14T22:45:07.941Z,99997.13
2023-05-14T22:47:39.272Z,100004.44
2023-05-14T22:50:11.661Z,100005.31
2023-05-14T22:52:40.337Z,100000.91
2023-05-14T22:55:10.667Z,99997.91
2023-05-14T22:57:39.857Z,100003.13
2023-05-14T23:00:10.094Z,99998.50
2023-05-14T23:02:39.386Z,99994.66
2023-05-14T23:05:08.688Z,99993.59
2023-05-14T23:07:37.114Z,99987.28
2023-05-14T23:10:06.000Z,99986.59
2023-05-14T23:12:40.149Z,99978.75
2023-05-14T23:15:09.007Z,99982.31
2023-05-14T23:17:37.427Z,99985.84
2023-05-14T23:20:06.824Z,99991.50
2023-05-14T23:22:35.202Z,99978.97
2023-05-14T23:25:03.909Z,99980.88
2023-05-14T23:27:32.178Z,99980.94
2023-05-14T23:30:02.437Z,99980.94
2023-05-14T23:32:30.987Z,99973.13
2023-05-14T23:34:59.387Z,99970.66
2023-05-14T23:37:30.725Z,99967.13
2023-05-14T23:40:01.776Z,99970.97
2023-05-14T23:42:30.759Z,99961.25
2023-05-14T23:44:58.890Z,99962.06
2023-05-14T23:49:27.935Z,99964.66
2023-05-14T23:51:56.847Z,99966.41
2023-05-14T23:54:27.222Z,99966.31
2023-05-14T23:56:57.833Z,99964.59
2023-05-14T23:59:26.755Z,99955.75
